Weather at Black River Ranch Airport

Public forecast

Using degrees Fahrenheit for public forecast. Weather courtesy of forecast.io.

Closest aviation weather report (METAR) to Black River Ranch Airport

Closest report is Gaylord Regional Airport, 19.5 nm (36.2 km) SW. Retrieved 2021/07/31 22:53 UTC (1 hour ago):

KGLR 312253Z AUTO 31006KT 7SM CLR 22/14 A2991 RMK AO2 SLP125 T02170139

Closest aviation forecast (TAF) to Black River Ranch Airport

Closest forecast is Pellston Regional Airport of Emmet County Airport, 30.1 nm (55.8 km) NW. Retrieved 2021/07/31 18:39 UTC (5 hours ago):

TAF KPLN 311735Z 3118/0118 27009G16KT P6SM VCTS SCT035CB BKN050 FM312100 27009KT P6SM BKN060 FM010300 31006KT P6SM VCSH SCT050 BKN090 FM010700 31006KT P6SM BKN020 FM011000 33007KT P6SM VCSH BKN016 FM011600 36009KT P6SM BKN022